Time;durP1;ratioP1;P1;durP2;ratioP2;P2;SDS_P1;SDS_P2;PMS_P1;PMS_P2;Temp;Humidity;BMP_temperature;BMP_pressure;BME280_temperature;BME280_humidity;BME280_pressure;Samples;Min_cycle;Max_cycle;Signal;HPM_P1;HPM_P2
2023/07/06 00:01:03;;;;;;;9.77;4.20;;;;;;;18.06;50.57;96385.81;5025930;28;20458;-72
2023/07/06 00:03:31;;;;;;;9.67;4.27;;;;;;;17.93;50.90;96380.56;5025586;28;20261;-72
2023/07/06 00:05:57;;;;;;;12.27;3.77;;;;;;;17.98;50.72;96381.06;5026667;28;20516;-72
2023/07/06 00:08:23;;;;;;;12.80;4.47;;;;;;;17.83;51.39;96376.03;5027882;28;20418;-71
2023/07/06 00:10:49;;;;;;;19.67;4.20;;;;;;;17.78;51.17;96379.00;5027536;28;20863;-71
2023/07/06 00:13:15;;;;;;;7.83;3.53;;;;;;;17.90;51.34;96382.59;5027379;28;20282;-72
2023/07/06 00:15:42;;;;;;;16.17;4.47;;;;;;;17.88;51.42;96381.84;5026663;28;20399;-71
2023/07/06 00:18:08;;;;;;;5.57;3.80;;;;;;;17.89;51.32;96387.06;5026879;28;20402;-71
2023/07/06 00:20:37;;;;;;;4.53;3.43;;;;;;;17.87;51.47;96388.13;5026519;28;20626;-72
2023/07/06 00:23:03;;;;;;;15.87;4.57;;;;;;;17.80;51.48;96381.53;5025858;28;20855;-72
2023/07/06 00:25:28;;;;;;;5.07;3.07;;;;;;;17.84;51.38;96380.41;5025707;28;20536;-72
2023/07/06 00:27:55;;;;;;;11.70;3.87;;;;;;;17.91;51.21;96374.50;5025525;28;20480;-72
2023/07/06 00:30:40;;;;;;;10.30;3.63;;;;;;;17.74;51.29;96382.81;5025455;28;20203;-72
2023/07/06 00:33:07;;;;;;;5.60;3.70;;;;;;;17.61;51.57;96385.53;5025525;28;21205;-72
2023/07/06 00:35:34;;;;;;;11.63;4.27;;;;;;;17.56;52.10;96380.53;5025408;28;20410;-72
2023/07/06 00:37:59;;;;;;;14.57;4.33;;;;;;;17.58;52.07;96383.09;5025530;28;20418;-72
2023/07/06 00:40:32;;;;;;;7.30;3.70;;;;;;;17.60;52.05;96393.59;5025333;28;20444;-72
2023/07/06 00:42:59;;;;;;;10.63;3.50;;;;;;;17.54;52.61;96390.41;5025685;28;20233;-72
2023/07/06 00:45:25;;;;;;;11.43;4.13;;;;;;;17.51;52.08;96401.25;5025582;28;20889;-72
2023/07/06 00:47:56;;;;;;;11.33;4.53;;;;;;;17.47;52.37;96390.97;5034929;28;20413;-72
2023/07/06 00:50:25;;;;;;;8.77;3.77;;;;;;;17.32;52.75;96387.63;5047549;28;20305;-72
2023/07/06 00:53:03;;;;;;;6.93;3.33;;;;;;;17.32;52.61;96383.16;5045479;28;20413;-72
2023/07/06 00:55:36;;;;;;;7.83;3.27;;;;;;;17.26;53.11;96380.94;5045561;28;20474;-72
2023/07/06 00:58:08;;;;;;;14.60;4.30;;;;;;;17.27;52.71;96381.81;5045324;28;20409;-72
2023/07/06 01:00:37;;;;;;;5.57;3.87;;;;;;;17.30;53.18;96389.53;5045166;28;20425;-72
2023/07/06 01:03:06;;;;;;;8.90;4.37;;;;;;;17.27;53.32;96380.00;5045012;28;20425;-72
2023/07/06 01:05:32;;;;;;;12.43;4.23;;;;;;;17.24;53.00;96379.34;5045314;28;20452;-72
2023/07/06 01:08:05;;;;;;;10.63;4.10;;;;;;;17.31;52.80;96367.34;5045148;28;20478;-72
2023/07/06 01:10:31;;;;;;;9.27;4.40;;;;;;;17.16;53.17;96379.06;5044719;28;20425;-73
2023/07/06 01:13:00;;;;;;;4.27;2.90;;;;;;;17.16;53.62;96376.41;5045185;28;20449;-72
2023/07/06 01:15:27;;;;;;;4.83;3.70;;;;;;;17.17;53.22;96376.28;5045107;28;20437;-72
2023/07/06 01:18:09;;;;;;;20.47;4.97;;;;;;;17.13;53.45;96380.97;5045147;28;20418;-72
2023/07/06 01:20:42;;;;;;;6.47;3.50;;;;;;;17.13;53.62;96383.63;5045659;28;21173;-72
2023/07/06 01:23:34;;;;;;;3.57;2.97;;;;;;;16.98;54.32;96382.03;5049114;28;20495;-72
2023/07/06 01:26:05;;;;;;;5.53;2.80;;;;;;;16.86;54.51;96382.88;5048497;28;20965;-72
2023/07/06 01:28:45;;;;;;;9.90;4.10;;;;;;;17.08;53.39;96377.78;5048603;28;20474;-72
2023/07/06 01:31:29;;;;;;;15.93;4.20;;;;;;;16.92;54.14;96383.31;5048397;28;20424;-72
2023/07/06 01:34:11;;;;;;;8.90;4.40;;;;;;;16.88;54.47;96375.69;5048543;28;20409;-72
2023/07/06 01:36:52;;;;;;;20.70;4.43;;;;;;;16.91;54.08;96380.75;5048617;28;20393;-72
2023/07/06 01:39:20;;;;;;;13.43;3.63;;;;;;;16.94;53.65;96377.91;5048118;28;20402;-72
2023/07/06 01:41:58;;;;;;;8.00;3.57;;;;;;;16.83;53.99;96373.34;5048302;28;20463;-72
2023/07/06 01:44:25;;;;;;;6.27;3.37;;;;;;;16.69;54.53;96379.56;5048506;28;20409;-72
2023/07/06 01:46:53;;;;;;;5.43;3.20;;;;;;;16.74;53.93;96371.28;5046513;28;21074;-72
2023/07/06 01:49:19;;;;;;;7.23;3.87;;;;;;;16.80;53.96;96365.63;5028089;28;20430;-72
2023/07/06 01:52:07;;;;;;;7.43;3.87;;;;;;;16.69;53.94;96370.78;5028201;28;20430;-72
2023/07/06 01:54:41;;;;;;;17.07;5.80;;;;;;;16.76;53.75;96381.81;5028311;28;20418;-72
2023/07/06 01:57:18;;;;;;;4.47;3.33;;;;;;;16.62;54.00;96375.63;5028449;28;20456;-71
2023/07/06 01:59:49;;;;;;;8.07;3.63;;;;;;;16.62;54.07;96373.00;5028121;28;20402;-71
2023/07/06 02:02:16;;;;;;;6.40;4.10;;;;;;;16.72;54.21;96373.19;5028171;28;20421;-72
2023/07/06 02:04:43;;;;;;;10.30;3.33;;;;;;;16.66;54.03;96366.53;5028294;28;20416;-72
2023/07/06 02:07:11;;;;;;;3.90;3.30;;;;;;;16.56;54.31;96370.78;5028119;28;20445;-72
2023/07/06 02:09:47;;;;;;;6.30;3.00;;;;;;;16.60;54.01;96364.28;5028310;28;20764;-73
2023/07/06 02:12:13;;;;;;;34.47;5.83;;;;;;;16.60;54.29;96366.94;5028515;28;20398;-72
2023/07/06 02:14:40;;;;;;;7.13;3.17;;;;;;;16.58;54.68;96365.34;5028110;28;20418;-72
2023/07/06 02:17:07;;;;;;;11.47;4.13;;;;;;;16.53;54.65;96363.03;5028057;28;20613;-72
2023/07/06 02:19:35;;;;;;;9.73;3.20;;;;;;;16.63;53.96;96371.19;5027826;28;20406;-72
2023/07/06 02:22:03;;;;;;;8.63;3.77;;;;;;;16.56;54.20;96361.97;5028040;28;20410;-72
2023/07/06 02:24:30;;;;;;;5.63;3.23;;;;;;;16.41;54.38;96362.06;5028070;28;20429;-72
2023/07/06 02:26:55;;;;;;;6.23;2.90;;;;;;;16.39;54.54;96363.94;5027815;28;20465;-71
2023/07/06 02:29:22;;;;;;;7.93;3.50;;;;;;;16.33;55.15;96361.75;5027420;28;20685;-71
2023/07/06 02:31:48;;;;;;;5.80;3.37;;;;;;;16.35;54.78;96366.94;5026703;28;20201;-72
2023/07/06 02:34:14;;;;;;;7.87;3.80;;;;;;;16.29;54.76;96361.06;5027838;28;20411;-72
2023/07/06 02:36:39;;;;;;;11.73;4.37;;;;;;;16.36;54.94;96363.31;5027811;28;20230;-72
2023/07/06 02:39:05;;;;;;;10.63;4.00;;;;;;;16.23;55.00;96353.56;5027690;28;20411;-72
2023/07/06 02:41:31;;;;;;;9.77;4.40;;;;;;;16.31;55.06;96368.94;5027743;28;20211;-72
2023/07/06 02:43:57;;;;;;;29.20;6.73;;;;;;;16.30;54.83;96354.84;5028453;28;20178;-72
2023/07/06 02:46:22;;;;;;;27.30;5.77;;;;;;;16.30;55.07;96362.78;5028225;28;20687;-72
2023/07/06 02:48:50;;;;;;;40.13;7.40;;;;;;;16.19;54.95;96359.16;5045314;28;20175;-72
2023/07/06 02:51:16;;;;;;;7.80;4.50;;;;;;;16.11;55.55;96353.53;5047720;28;20637;-71
2023/07/06 02:53:41;;;;;;;13.63;4.87;;;;;;;16.16;54.85;96357.56;5047947;28;20411;-72
2023/07/06 02:56:07;;;;;;;27.57;6.60;;;;;;;16.17;55.07;96351.31;5047915;28;20163;-72
2023/07/06 02:58:34;;;;;;;21.83;5.30;;;;;;;16.08;55.37;96354.56;5048415;28;20167;-72
2023/07/06 03:00:59;;;;;;;7.63;4.10;;;;;;;15.95;55.80;96359.84;5048014;28;20329;-72
2023/07/06 03:03:26;;;;;;;8.33;3.87;;;;;;;16.01;55.55;96362.06;5055633;28;20425;-73
2023/07/06 03:05:52;;;;;;;18.33;4.23;;;;;;;15.96;55.89;96361.53;5063249;28;20175;-72
2023/07/06 03:08:17;;;;;;;54.27;8.80;;;;;;;15.99;55.78;96361.34;5059814;28;20515;-72
2023/07/06 03:10:46;;;;;;;15.93;5.10;;;;;;;15.99;55.92;96365.78;5046513;28;20198;-72
2023/07/06 03:13:13;;;;;;;51.27;7.80;;;;;;;15.93;55.83;96359.09;5047387;28;20233;-70
2023/07/06 03:15:40;;;;;;;37.97;6.67;;;;;;;15.83;56.20;96361.50;5046975;28;20410;-72
2023/07/06 03:18:06;;;;;;;18.87;5.53;;;;;;;15.77;56.11;96358.41;5046726;28;20488;-72
2023/07/06 03:20:32;;;;;;;17.53;4.97;;;;;;;15.74;56.13;96355.97;5046255;28;20504;-71
2023/07/06 03:22:57;;;;;;;33.40;7.00;;;;;;;15.78;56.03;96353.03;5046789;28;20499;-71
2023/07/06 03:25:25;;;;;;;84.00;17.73;;;;;;;15.73;56.18;96359.53;5046974;28;20258;-71
2023/07/06 03:27:51;;;;;;;33.67;9.30;;;;;;;15.77;56.42;96348.66;5046766;28;20175;-72
2023/07/06 03:30:19;;;;;;;7.10;5.80;;;;;;;15.74;56.12;96348.03;5046215;28;20425;-72
2023/07/06 03:32:45;;;;;;;6.93;3.20;;;;;;;15.70;56.47;96347.38;5046334;28;20601;-72
2023/07/06 03:35:12;;;;;;;13.60;4.50;;;;;;;15.69;56.57;96350.94;5046588;28;20456;-72
2023/07/06 03:37:38;;;;;;;8.10;4.40;;;;;;;15.43;57.67;96342.88;5046318;28;20263;-72
2023/07/06 03:40:10;;;;;;;20.27;5.70;;;;;;;15.57;57.27;96349.09;5045932;28;20465;-72
2023/07/06 03:42:40;;;;;;;10.77;3.73;;;;;;;15.54;57.60;96349.28;5046383;28;20413;-72
2023/07/06 03:45:08;;;;;;;10.47;4.70;;;;;;;15.50;57.08;96348.63;5045867;28;20409;-71
2023/07/06 03:47:35;;;;;;;11.53;5.20;;;;;;;15.64;56.66;96350.41;5038449;28;20458;-71
2023/07/06 03:50:00;;;;;;;28.27;7.53;;;;;;;15.60;56.84;96349.72;5025846;28;20426;-75
2023/07/06 03:52:28;;;;;;;53.57;8.17;;;;;;;15.56;57.03;96347.38;5026154;28;20418;-71
2023/07/06 03:54:54;;;;;;;63.73;10.33;;;;;;;15.64;57.04;96345.94;5026123;28;20182;-72
2023/07/06 03:57:20;;;;;;;43.63;7.40;;;;;;;15.79;56.55;96345.94;5026238;28;20402;-71
2023/07/06 03:59:46;;;;;;;40.07;7.23;;;;;;;16.01;55.68;96348.00;5025538;28;20203;-73
2023/07/06 04:02:12;;;;;;;27.00;5.70;;;;;;;16.04;55.21;96353.09;5026191;28;20495;-72
2023/07/06 04:04:38;;;;;;;15.30;5.17;;;;;;;16.22;54.66;96349.22;5026336;28;20979;-72
2023/07/06 04:07:04;;;;;;;5.43;4.50;;;;;;;16.24;54.28;96349.97;5025935;28;20196;-71
2023/07/06 04:09:29;;;;;;;29.13;6.47;;;;;;;16.15;54.03;96350.56;5020959;28;20436;-71
2023/07/06 04:11:55;;;;;;;21.10;5.67;;;;;;;16.26;54.07;96345.41;5019699;28;21053;-71
2023/07/06 04:14:24;;;;;;;20.57;5.43;;;;;;;16.46;53.06;96352.03;5012326;28;20176;-72
2023/07/06 04:16:55;;;;;;;23.63;6.10;;;;;;;16.65;52.76;96353.38;5025802;28;20171;-72
2023/07/06 04:19:21;;;;;;;40.60;7.60;;;;;;;16.68;52.69;96359.34;5024619;28;20410;-73
2023/07/06 04:21:47;;;;;;;53.43;8.73;;;;;;;16.79;52.03;96352.47;5025569;28;20426;-72
2023/07/06 04:24:13;;;;;;;12.10;4.57;;;;;;;16.82;52.02;96353.13;5007652;28;20426;-72
2023/07/06 04:26:43;;;;;;;20.67;5.27;;;;;;;16.73;51.96;96357.22;5024675;28;20329;-72
2023/07/06 04:29:09;;;;;;;102.93;12.67;;;;;;;16.78;52.15;96358.69;5022344;28;20409;-73
2023/07/06 04:31:36;;;;;;;23.40;7.73;;;;;;;16.88;51.52;96357.13;5023287;28;20429;-71
2023/07/06 04:34:03;;;;;;;23.70;6.90;;;;;;;17.12;51.61;96359.84;5023134;28;20414;-71
2023/07/06 04:36:31;;;;;;;21.17;6.00;;;;;;;17.25;51.11;96362.50;5023126;28;20406;-71
2023/07/06 04:38:58;;;;;;;17.23;6.00;;;;;;;17.26;50.78;96365.03;5023191;28;20414;-72
2023/07/06 04:41:23;;;;;;;28.80;6.37;;;;;;;17.33;50.87;96360.97;5023205;28;20437;-73
2023/07/06 04:43:48;;;;;;;21.00;5.90;;;;;;;17.33;50.35;96360.13;5023385;28;20410;-72
2023/07/06 04:46:14;;;;;;;22.60;5.20;;;;;;;17.58;50.21;96356.56;5025841;28;20287;-72
2023/07/06 04:48:41;;;;;;;51.23;8.73;;;;;;;17.44;50.24;96369.97;5022231;28;20174;-71
2023/07/06 04:51:08;;;;;;;15.70;5.47;;;;;;;17.56;49.98;96361.13;5042160;28;20228;-71
2023/07/06 04:53:34;;;;;;;9.77;5.10;;;;;;;17.64;49.91;96356.09;5042769;28;20529;-70
2023/07/06 04:56:00;;;;;;;59.13;10.70;;;;;;;17.87;49.37;96361.56;5030263;28;21192;-72
2023/07/06 04:58:25;;;;;;;15.40;5.10;;;;;;;17.90;49.32;96367.50;5021941;28;20175;-73
2023/07/06 05:00:50;;;;;;;12.80;4.70;;;;;;;18.09;48.37;96372.28;5024014;28;20186;-72
2023/07/06 05:03:16;;;;;;;24.60;6.33;;;;;;;18.15;48.11;96365.69;5027787;28;20174;-72
2023/07/06 05:05:45;;;;;;;56.37;8.87;;;;;;;18.25;47.76;96368.50;5014809;28;20191;-72
2023/07/06 05:08:15;;;;;;;12.93;5.23;;;;;;;18.08;48.59;96372.41;5007859;28;20176;-71
2023/07/06 05:10:43;;;;;;;20.93;4.17;;;;;;;18.08;48.16;96378.56;5019965;28;20597;-71
2023/07/06 05:13:09;;;;;;;11.43;5.60;;;;;;;18.21;48.09;96383.81;5024494;28;20429;-71
2023/07/06 05:15:36;;;;;;;23.40;6.10;;;;;;;18.60;47.18;96393.25;5023499;28;20535;-69
2023/07/06 05:18:03;;;;;;;20.30;6.37;;;;;;;18.44;47.70;96382.09;5027996;28;20270;-71
2023/07/06 05:20:30;;;;;;;16.83;5.23;;;;;;;18.64;47.65;96380.59;5034205;28;20449;-70
2023/07/06 05:22:57;;;;;;;10.90;4.60;;;;;;;18.85;47.13;96371.94;5028162;28;20502;-71
2023/07/06 05:25:22;;;;;;;27.40;6.37;;;;;;;19.10;46.61;96369.06;5013950;28;20545;-71
2023/07/06 05:27:48;;;;;;;31.53;8.43;;;;;;;19.06;46.43;96375.56;5025403;28;20436;-69
2023/07/06 05:30:14;;;;;;;29.50;7.20;;;;;;;19.40;45.61;96386.22;5024594;28;20199;-69
2023/07/06 05:32:39;;;;;;;29.53;7.07;;;;;;;19.49;45.30;96381.97;5017363;28;20179;-71
2023/07/06 05:35:05;;;;;;;30.43;7.17;;;;;;;19.68;44.41;96382.25;5025718;28;20172;-70
2023/07/06 05:37:33;;;;;;;16.63;5.93;;;;;;;19.81;44.27;96377.59;5016573;28;20180;-70
2023/07/06 05:39:59;;;;;;;19.13;6.50;;;;;;;19.79;44.68;96378.69;5025446;28;21113;-70
2023/07/06 05:42:25;;;;;;;14.53;5.93;;;;;;;19.96;44.56;96369.31;5025821;28;20521;-71
2023/07/06 05:44:50;;;;;;;12.10;5.80;;;;;;;20.11;44.30;96373.41;5026340;28;20410;-71
2023/07/06 05:47:16;;;;;;;16.20;8.17;;;;;;;20.19;43.77;96373.59;5026917;28;20289;-71
2023/07/06 05:49:41;;;;;;;18.27;5.70;;;;;;;20.06;44.63;96375.59;5034070;28;20186;-72
2023/07/06 05:52:07;;;;;;;49.23;9.87;;;;;;;20.32;44.12;96386.75;5036971;28;20233;-72
2023/07/06 05:54:32;;;;;;;37.17;6.87;;;;;;;20.36;43.98;96385.50;5028328;28;20178;-71
2023/07/06 05:57:00;;;;;;;28.00;6.70;;;;;;;19.71;45.26;96391.78;5017534;28;20175;-71
2023/07/06 05:59:26;;;;;;;49.53;8.10;;;;;;;20.15;43.96;96385.50;5025490;28;20171;-70
2023/07/06 06:01:52;;;;;;;10.20;5.87;;;;;;;20.01;44.02;96383.97;5016669;28;20539;-70
2023/07/06 06:04:18;;;;;;;19.77;9.03;;;;;;;19.92;44.65;96383.88;5025746;28;20179;-70
2023/07/06 06:06:54;;;;;;;16.60;5.73;;;;;;;19.17;45.71;96385.38;5014662;28;20488;-71
2023/07/06 06:09:20;;;;;;;15.80;6.73;;;;;;;19.35;45.89;96385.75;5025127;28;20178;-71
2023/07/06 06:11:48;;;;;;;5.80;4.33;;;;;;;19.43;46.27;96385.97;5027088;28;20492;-70
2023/07/06 06:14:14;;;;;;;10.00;5.03;;;;;;;20.04;44.72;96393.53;5020183;28;20533;-71
2023/07/06 06:16:40;;;;;;;12.70;6.23;;;;;;;20.19;45.00;96381.59;5026888;28;20525;-71
2023/07/06 06:19:06;;;;;;;39.70;10.70;;;;;;;20.63;43.86;96385.06;5027166;28;20188;-70
2023/07/06 06:21:33;;;;;;;16.03;6.60;;;;;;;20.27;44.47;96383.63;5026667;28;20479;-70
2023/07/06 06:23:59;;;;;;;22.53;6.67;;;;;;;20.94;43.39;96383.28;5027894;28;21393;-71
2023/07/06 06:26:25;;;;;;;6.23;5.37;;;;;;;20.74;43.00;96392.16;5027442;28;20690;-70
2023/07/06 06:28:51;;;;;;;15.17;5.37;;;;;;;21.11;42.29;96391.66;5026840;28;20407;-71
2023/07/06 06:31:17;;;;;;;12.57;6.57;;;;;;;20.56;43.93;96399.03;5025212;28;20481;-71
2023/07/06 06:33:44;;;;;;;27.27;22.70;;;;;;;19.62;46.37;96394.19;5026958;28;20174;-71
2023/07/06 06:36:12;;;;;;;31.17;27.70;;;;;;;19.39;47.38;96398.69;5027469;28;20600;-70
2023/07/06 06:38:37;;;;;;;38.03;26.93;;;;;;;19.74;47.18;96405.69;5026936;28;20449;-72
2023/07/06 06:41:07;;;;;;;41.53;26.20;;;;;;;19.95;46.62;96402.25;5024353;28;20561;-70
2023/07/06 06:43:44;;;;;;;37.60;23.53;;;;;;;20.33;46.10;96400.94;5003009;28;20548;-72
2023/07/06 06:46:11;;;;;;;36.10;23.27;;;;;;;21.20;44.47;96393.53;5026249;28;20914;-71
2023/07/06 06:48:37;;;;;;;29.60;20.73;;;;;;;21.12;45.18;96394.19;5029887;28;20471;-72
2023/07/06 06:51:04;;;;;;;25.53;17.73;;;;;;;20.98;45.96;96389.22;5026981;28;20437;-70
2023/07/06 06:53:30;;;;;;;24.10;16.67;;;;;;;21.04;46.40;96395.81;5027223;28;20195;-71
2023/07/06 06:55:55;;;;;;;21.50;18.97;;;;;;;21.13;45.98;96393.22;5024830;28;20433;-71
2023/07/06 06:58:21;;;;;;;23.23;20.93;;;;;;;21.39;45.12;96391.94;5027116;28;20916;-71
2023/07/06 07:00:57;;;;;;;33.20;23.43;;;;;;;21.25;46.24;96390.47;5025933;28;20203;-70
2023/07/06 07:03:23;;;;;;;29.87;19.20;;;;;;;21.81;45.35;96381.97;5021050;28;20291;-70
2023/07/06 07:05:57;;;;;;;25.17;18.00;;;;;;;21.34;45.81;96390.50;5026490;28;20453;-72
2023/07/06 07:08:22;;;;;;;26.90;15.60;;;;;;;21.56;45.67;96385.97;5026472;28;20183;-72
2023/07/06 07:10:52;;;;;;;20.50;17.70;;;;;;;21.28;46.64;96387.50;5025952;28;20446;-71
2023/07/06 07:13:18;;;;;;;24.13;15.87;;;;;;;22.14;44.85;96382.59;5021789;28;20649;-71
2023/07/06 07:15:43;;;;;;;31.53;16.00;;;;;;;22.92;43.26;96386.09;5026297;28;20472;-72
2023/07/06 07:18:09;;;;;;;25.33;15.63;;;;;;;23.23;42.45;96378.69;5023420;28;20259;-72
2023/07/06 07:20:34;;;;;;;47.37;23.17;;;;;;;23.53;41.83;96381.25;5026278;28;20249;-72
2023/07/06 07:23:01;;;;;;;26.77;20.30;;;;;;;23.64;41.72;96378.38;5022065;28;20248;-71
2023/07/06 07:25:27;;;;;;;35.97;20.83;;;;;;;23.79;41.10;96381.47;5018093;28;20175;-70
2023/07/06 07:27:54;;;;;;;30.40;27.00;;;;;;;22.99;43.04;96373.00;5026336;28;20788;-71
2023/07/06 07:30:20;;;;;;;32.00;21.37;;;;;;;23.03;43.71;96375.25;5025706;28;20767;-71
2023/07/06 07:32:47;;;;;;;28.30;21.97;;;;;;;22.81;44.23;96373.69;5023306;28;20433;-71
2023/07/06 07:35:13;;;;;;;29.57;20.53;;;;;;;23.04;44.29;96370.75;5018369;28;20418;-71
2023/07/06 07:37:38;;;;;;;17.73;14.30;;;;;;;23.28;43.54;96367.56;5026967;28;20410;-71
2023/07/06 07:40:05;;;;;;;21.33;13.47;;;;;;;23.72;43.04;96366.91;5026015;28;20822;-71
2023/07/06 07:42:30;;;;;;;28.33;12.93;;;;;;;23.77;42.63;96362.00;5024706;28;20217;-70
2023/07/06 07:44:57;;;;;;;19.50;14.63;;;;;;;22.65;45.79;96365.41;5026452;28;20414;-72
2023/07/06 07:47:24;;;;;;;18.77;12.97;;;;;;;23.05;44.52;96364.38;5032149;28;20698;-70
2023/07/06 07:49:49;;;;;;;30.70;13.00;;;;;;;23.13;44.42;96356.47;5025896;28;20433;-71
2023/07/06 07:52:15;;;;;;;16.40;13.80;;;;;;;23.50;43.73;96358.28;5008472;28;20429;-72
2023/07/06 07:54:43;;;;;;;15.97;13.70;;;;;;;23.33;44.41;96359.91;5026575;28;20178;-71
2023/07/06 07:57:09;;;;;;;16.43;13.57;;;;;;;23.63;43.40;96364.16;5026418;28;20413;-71
2023/07/06 07:59:35;;;;;;;20.43;13.50;;;;;;;23.97;42.66;96355.50;5025966;28;20434;-71
2023/07/06 08:02:01;;;;;;;39.70;18.03;;;;;;;24.35;42.32;96356.22;5023921;28;20500;-70
2023/07/06 08:04:26;;;;;;;28.40;19.50;;;;;;;23.84;43.09;96347.00;5026249;28;20422;-71
2023/07/06 08:06:52;;;;;;;33.63;17.87;;;;;;;22.87;45.43;96360.72;5023858;28;20278;-71
2023/07/06 08:09:17;;;;;;;26.03;21.67;;;;;;;22.98;45.09;96360.56;5024916;28;20190;-71
2023/07/06 08:11:45;;;;;;;28.23;22.00;;;;;;;23.08;45.48;96352.53;5025532;28;20290;-71
2023/07/06 08:14:11;;;;;;;18.20;15.73;;;;;;;23.75;43.55;96348.75;5023253;28;20175;-71
2023/07/06 08:16:40;;;;;;;35.57;19.93;;;;;;;23.75;43.52;96353.28;5024938;28;20509;-71
2023/07/06 08:19:06;;;;;;;25.00;15.90;;;;;;;24.57;41.58;96354.94;5025193;28;21237;-71
2023/07/06 08:21:32;;;;;;;30.07;16.63;;;;;;;24.64;41.57;96355.16;5022797;28;20472;-71
2023/07/06 08:23:59;;;;;;;24.87;14.50;;;;;;;24.13;42.07;96357.53;5014745;28;20427;-70
2023/07/06 08:26:24;;;;;;;26.00;10.63;;;;;;;24.20;42.15;96357.75;5021225;28;20227;-70
2023/07/06 08:28:50;;;;;;;22.33;12.07;;;;;;;24.11;42.05;96362.19;5017651;28;20781;-71
2023/07/06 08:31:18;;;;;;;18.00;10.77;;;;;;;24.66;41.08;96359.38;5022540;28;20210;-71
2023/07/06 08:33:46;;;;;;;36.50;11.17;;;;;;;23.96;42.73;96369.06;5024848;28;20278;-71
2023/07/06 08:36:13;;;;;;;14.10;10.50;;;;;;;23.45;43.43;96366.75;5024864;28;20430;-70
2023/07/06 08:38:38;;;;;;;13.63;8.67;;;;;;;23.76;43.21;96361.13;5025059;28;20499;-70
2023/07/06 08:41:14;;;;;;;14.40;8.73;;;;;;;23.54;42.42;96370.41;5021346;28;20543;-70
2023/07/06 08:43:41;;;;;;;20.70;9.63;;;;;;;23.63;43.21;96361.47;5027526;28;20712;-71
2023/07/06 08:46:11;;;;;;;17.70;9.00;;;;;;;23.71;43.08;96367.91;5023052;28;20578;-71
2023/07/06 08:48:37;;;;;;;17.87;9.67;;;;;;;23.91;42.80;96364.16;5030280;28;20919;-71
2023/07/06 08:51:15;;;;;;;14.53;8.97;;;;;;;23.91;43.18;96364.16;5024555;28;20430;-70
2023/07/06 08:53:51;;;;;;;18.20;9.23;;;;;;;23.99;42.70;96366.91;5025303;28;20163;-71
2023/07/06 08:56:20;;;;;;;12.37;9.37;;;;;;;24.14;42.30;96366.41;5023008;28;20430;-71
2023/07/06 08:58:46;;;;;;;7.50;6.37;;;;;;;24.09;41.82;96366.84;5014267;28;20432;-71
2023/07/06 09:01:14;;;;;;;20.60;7.10;;;;;;;24.04;41.16;96367.31;5025166;28;20445;-71
2023/07/06 09:03:51;;;;;;;33.17;7.90;;;;;;;24.05;39.84;96369.00;5025030;28;20424;-71
2023/07/06 09:06:22;;;;;;;10.40;5.80;;;;;;;23.61;40.82;96367.97;5023464;28;20457;-71
2023/07/06 09:08:50;;;;;;;12.20;5.70;;;;;;;24.62;38.51;96368.72;5006505;28;20522;-70
2023/07/06 09:11:17;;;;;;;11.57;5.20;;;;;;;25.27;36.38;96362.13;5015407;28;20501;-70
2023/07/06 09:13:49;;;;;;;3.80;3.40;;;;;;;25.31;34.08;96358.97;5025229;28;20422;-71
2023/07/06 09:16:19;;;;;;;24.37;6.70;;;;;;;25.86;32.39;96360.41;5021199;28;20460;-71
2023/07/06 09:18:45;;;;;;;20.53;4.30;;;;;;;26.22;31.48;96352.09;5022953;28;20502;-71
2023/07/06 09:21:11;;;;;;;4.57;3.80;;;;;;;25.73;30.57;96357.31;5024928;28;20529;-71
2023/07/06 09:23:37;;;;;;;9.67;3.80;;;;;;;26.09;30.64;96352.56;5026089;28;20449;-71
2023/07/06 09:26:07;;;;;;;13.13;4.13;;;;;;;25.79;29.06;96348.59;5023678;28;20510;-71
2023/07/06 09:28:33;;;;;;;18.20;4.80;;;;;;;25.71;31.22;96353.94;5022554;28;20195;-70
2023/07/06 09:31:18;;;;;;;18.93;4.63;;;;;;;25.71;31.60;96344.03;5018250;28;21099;-71
2023/07/06 09:33:45;;;;;;;9.30;4.50;;;;;;;25.13;34.14;96345.59;5025302;28;20179;-71
2023/07/06 09:36:16;;;;;;;11.43;4.03;;;;;;;25.59;31.00;96349.88;5025042;28;20408;-71
2023/07/06 09:38:45;;;;;;;4.23;2.77;;;;;;;25.76;31.17;96343.53;5023555;28;20480;-71
2023/07/06 09:41:22;;;;;;;5.10;3.77;;;;;;;24.96;32.55;96346.47;5023931;28;20573;-71
2023/07/06 09:43:52;;;;;;;9.00;4.00;;;;;;;25.02;33.05;96343.19;5020251;28;20412;-71
2023/07/06 09:46:18;;;;;;;25.77;6.20;;;;;;;25.43;31.59;96343.41;5028365;28;20457;-71
2023/07/06 09:48:44;;;;;;;16.77;3.90;;;;;;;25.68;29.66;96351.59;5034231;28;20426;-71
2023/07/06 09:51:11;;;;;;;15.77;4.90;;;;;;;24.92;30.86;96361.22;5028125;28;20449;-71
2023/07/06 09:53:48;;;;;;;13.30;4.27;;;;;;;24.84;31.78;96351.25;5028033;28;20533;-71
2023/07/06 09:56:14;;;;;;;11.50;3.80;;;;;;;24.67;30.95;96355.69;5027520;28;20927;-72
2023/07/06 09:58:41;;;;;;;14.27;4.47;;;;;;;24.34;31.80;96349.16;5025094;28;20434;-71
2023/07/06 10:01:20;;;;;;;5.37;4.27;;;;;;;24.05;32.75;96360.97;5035346;28;20194;-72
2023/07/06 10:04:05;;;;;;;22.93;4.37;;;;;;;23.92;33.64;96351.59;5029990;28;20453;-71
2023/07/06 10:06:36;;;;;;;15.30;3.80;;;;;;;24.72;31.31;96345.31;5048202;28;21166;-71
2023/07/06 10:09:14;;;;;;;19.23;4.10;;;;;;;24.48;32.02;96351.34;5028727;28;20996;-71
2023/07/06 10:11:50;;;;;;;11.17;3.90;;;;;;;25.15;31.38;96348.94;5024510;28;20460;-71
2023/07/06 10:14:39;;;;;;;16.70;4.90;;;;;;;25.62;30.57;96357.59;5023730;28;20406;-72
2023/07/06 10:17:15;;;;;;;5.53;3.50;;;;;;;24.82;31.03;96341.69;5025950;28;20514;-71
2023/07/06 10:19:48;;;;;;;5.27;4.27;;;;;;;24.64;31.61;96347.94;5027429;28;20417;-71
2023/07/06 10:22:25;;;;;;;11.03;4.07;;;;;;;24.60;32.15;96353.78;5025790;28;20444;-71
2023/07/06 10:25:00;;;;;;;16.93;4.90;;;;;;;25.31;29.99;96352.75;5020598;28;20503;-71
2023/07/06 10:27:32;;;;;;;19.40;5.40;;;;;;;25.59;29.72;96344.50;5026362;28;20522;-71
2023/07/06 10:30:03;;;;;;;7.63;4.10;;;;;;;24.86;30.12;96351.97;5027039;28;20462;-71
2023/07/06 10:32:38;;;;;;;7.23;4.33;;;;;;;24.77;31.06;96349.38;5018483;28;20801;-71
2023/07/06 10:35:25;;;;;;;6.43;4.03;;;;;;;24.06;32.31;96351.09;5027782;28;20410;-71
2023/07/06 10:37:51;;;;;;;16.33;4.53;;;;;;;24.56;31.79;96345.19;5027408;28;20422;-72
2023/07/06 10:40:28;;;;;;;7.43;3.90;;;;;;;24.51;31.06;96356.38;5027311;28;21022;-71
2023/07/06 10:43:12;;;;;;;4.20;3.80;;;;;;;24.72;30.64;96344.47;5020738;28;20903;-71
2023/07/06 10:45:45;;;;;;;5.40;3.40;;;;;;;24.23;31.52;96350.22;5027318;28;20460;-71
2023/07/06 10:48:21;;;;;;;8.73;4.07;;;;;;;24.61;31.01;96350.91;5032340;28;20442;-71
2023/07/06 10:51:06;;;;;;;5.07;4.10;;;;;;;24.10;31.19;96349.78;5026909;28;20521;-71
2023/07/06 10:53:37;;;;;;;10.43;4.90;;;;;;;24.75;30.29;96336.09;5025557;28;20398;-72
2023/07/06 10:56:06;;;;;;;16.63;4.73;;;;;;;24.83;30.94;96344.22;5024189;28;20501;-71
2023/07/06 10:58:43;;;;;;;7.10;4.17;;;;;;;25.13;30.10;96342.03;5025704;28;20958;-70
2023/07/06 11:01:10;;;;;;;13.53;5.10;;;;;;;24.98;29.53;96344.47;5027138;28;20426;-73
2023/07/06 11:03:37;;;;;;;7.17;3.87;;;;;;;24.37;30.50;96346.16;5027172;28;20407;-73
2023/07/06 11:06:06;;;;;;;8.53;3.90;;;;;;;24.63;30.32;96345.41;5026138;28;20453;-72
2023/07/06 11:09:03;;;;;;;10.37;5.17;;;;;;;24.76;29.99;96348.53;5022704;28;20488;-72
2023/07/06 11:11:33;;;;;;;15.17;4.07;;;;;;;25.00;29.67;96347.84;5024216;28;21041;-70
2023/07/06 11:14:17;;;;;;;7.47;4.00;;;;;;;25.19;29.68;96335.25;5026777;28;20446;-72
2023/07/06 11:16:55;;;;;;;6.10;4.17;;;;;;;25.32;30.92;96343.69;5024699;28;20519;-71
2023/07/06 11:19:31;;;;;;;21.23;5.93;;;;;;;25.03;32.03;96341.31;5023150;28;20438;-71
2023/07/06 11:22:04;;;;;;;6.70;3.53;;;;;;;24.67;32.56;96339.56;5020557;28;20449;-71
2023/07/06 11:24:37;;;;;;;7.50;4.80;;;;;;;24.78;32.79;96341.19;5022973;28;20461;-71
2023/07/06 11:27:12;;;;;;;23.17;5.73;;;;;;;24.79;32.47;96347.38;5020599;28;20450;-72
2023/07/06 11:29:39;;;;;;;11.07;4.30;;;;;;;24.76;32.30;96351.22;5024933;28;20410;-71
2023/07/06 11:32:29;;;;;;;7.03;4.00;;;;;;;24.62;32.02;96346.44;5018253;28;20431;-70
2023/07/06 11:35:14;;;;;;;22.33;7.10;;;;;;;24.75;31.82;96336.09;5026391;28;20425;-71